createdAt,value
2022-11-28T00:01:48.014Z,1.18
2022-11-28T00:03:49.869Z,1.19
2022-11-28T00:05:53.021Z,1.18
2022-11-28T00:07:55.883Z,1.17
2022-11-28T00:09:57.859Z,1.15
2022-11-28T00:11:59.713Z,1.14
2022-11-28T00:14:01.579Z,1.15
2022-11-28T00:16:06.748Z,1.17
2022-11-28T00:18:08.703Z,1.19
2022-11-28T00:20:10.837Z,1.20
2022-11-28T00:22:12.942Z,1.21
2022-11-28T00:24:16.890Z,1.22
2022-11-28T00:26:23.421Z,1.21
2022-11-28T00:28:25.285Z,1.20
2022-11-28T00:30:27.203Z,1.20
2022-11-28T00:32:29.071Z,1.21
2022-11-28T00:34:30.970Z,1.23
2022-11-28T00:36:33.106Z,1.23
2022-11-28T00:38:35.970Z,1.22
2022-11-28T00:40:38.097Z,1.22
2022-11-28T00:42:39.990Z,1.20
2022-11-28T00:44:42.040Z,1.19
2022-11-28T00:46:44.314Z,1.17
2022-11-28T00:48:47.110Z,1.13
2022-11-28T00:50:49.250Z,1.11
2022-11-28T00:52:51.059Z,1.13
2022-11-28T00:54:52.918Z,1.10
2022-11-28T00:56:54.793Z,1.11
2022-11-28T00:58:57.188Z,1.12
2022-11-28T01:00:59.117Z,1.14
2022-11-28T01:03:00.982Z,1.13
2022-11-28T01:05:02.893Z,1.14
2022-11-28T01:07:04.847Z,1.14
2022-11-28T01:09:11.787Z,1.12
2022-11-28T01:11:14.169Z,1.12
2022-11-28T01:13:16.000Z,1.16
2022-11-28T01:15:18.263Z,1.19
2022-11-28T01:17:20.103Z,1.15
2022-11-28T01:19:22.085Z,1.13
2022-11-28T01:21:25.986Z,1.13
2022-11-28T01:23:27.910Z,1.15
2022-11-28T01:25:30.192Z,1.13
2022-11-28T01:27:32.083Z,1.14
2022-11-28T01:29:34.082Z,1.12
2022-11-28T01:31:37.560Z,1.10
2022-11-28T01:33:39.409Z,1.10
2022-11-28T01:35:41.273Z,1.12
2022-11-28T01:37:43.122Z,1.15
2022-11-28T01:39:44.991Z,1.14
2022-11-28T01:41:46.852Z,1.14
2022-11-28T01:44:02.924Z,1.15
2022-11-28T01:46:06.848Z,1.15
2022-11-28T01:48:12.033Z,1.14
2022-11-28T01:50:14.402Z,1.14
2022-11-28T01:52:19.132Z,1.10
2022-11-28T01:54:25.506Z,1.09
2022-11-28T01:56:32.324Z,1.08
2022-11-28T01:58:36.758Z,1.04
2022-11-28T02:00:39.175Z,1.01
2022-11-28T02:03:06.922Z,1.01
2022-11-28T02:05:09.349Z,0.97
2022-11-28T02:07:11.299Z,0.96
2022-11-28T02:09:15.515Z,0.94
2022-11-28T02:11:33.874Z,0.89
2022-11-28T02:14:08.197Z,0.89
2022-11-28T02:16:26.375Z,0.87
2022-11-28T02:18:55.499Z,0.84
2022-11-28T02:21:13.956Z,0.87
2022-11-28T02:23:35.253Z,0.86
2022-11-28T02:26:06.215Z,0.85
2022-11-28T02:28:11.114Z,0.84
2022-11-28T02:30:16.429Z,0.85
2022-11-28T02:32:51.988Z,0.83
2022-11-28T02:34:56.993Z,0.82
2022-11-28T02:37:09.889Z,0.81
2022-11-28T02:39:37.730Z,0.83
2022-11-28T02:41:47.786Z,0.80
2022-11-28T02:44:07.619Z,0.79
2022-11-28T02:46:55.320Z,0.79
2022-11-28T02:49:12.724Z,0.78
2022-11-28T02:51:27.477Z,0.78
2022-11-28T02:53:33.054Z,0.76
2022-11-28T02:55:39.573Z,0.74
2022-11-28T02:57:48.319Z,0.74
2022-11-28T02:59:50.927Z,0.73
2022-11-28T03:01:52.985Z,0.76
2022-11-28T03:04:37.408Z,0.75
2022-11-28T03:07:00.230Z,0.75
2022-11-28T03:09:11.753Z,0.78
2022-11-28T03:11:27.860Z,0.74
2022-11-28T03:13:49.233Z,0.74
2022-11-28T03:16:09.701Z,0.73
2022-11-28T03:18:23.350Z,0.69
2022-11-28T03:20:48.517Z,0.68
2022-11-28T03:22:56.515Z,0.67
2022-11-28T03:25:06.572Z,0.63
2022-11-28T03:27:19.437Z,0.61
2022-11-28T03:29:33.031Z,0.61
2022-11-28T03:31:44.623Z,0.52
2022-11-28T03:33:52.087Z,0.51
2022-11-28T03:35:58.740Z,0.52
2022-11-28T03:38:07.958Z,0.46
2022-11-28T03:40:15.891Z,0.45
2022-11-28T03:42:23.192Z,0.37
2022-11-28T03:44:30.980Z,0.36
2022-11-28T03:46:38.701Z,0.35
2022-11-28T03:48:46.067Z,0.29
2022-11-28T03:50:54.855Z,0.24
2022-11-28T03:53:02.440Z,0.20
2022-11-28T03:55:16.816Z,0.22
2022-11-28T03:57:38.795Z,0.23
2022-11-28T03:59:44.686Z,0.20
2022-11-28T04:01:58.641Z,0.26
2022-11-28T04:04:26.647Z,0.23
2022-11-28T04:06:32.088Z,0.23
2022-11-28T04:08:41.550Z,0.21
2022-11-28T04:10:52.844Z,0.26
2022-11-28T04:13:03.189Z,0.26
2022-11-28T04:15:14.145Z,0.28
2022-11-28T04:17:32.731Z,0.30
2022-11-28T04:19:41.636Z,0.29
2022-11-28T04:21:55.793Z,0.31
2022-11-28T04:24:04.110Z,0.32
2022-11-28T04:26:20.649Z,0.33
2022-11-28T04:28:26.216Z,0.36
2022-11-28T04:30:28.128Z,0.35
2022-11-28T04:32:33.315Z,0.38
2022-11-28T04:34:36.877Z,0.39
2022-11-28T04:36:41.188Z,0.40
2022-11-28T04:38:49.660Z,0.37
2022-11-28T04:40:57.007Z,0.37
2022-11-28T04:43:06.755Z,0.34
2022-11-28T04:45:43.503Z,0.40
2022-11-28T04:47:45.839Z,0.36
2022-11-28T04:49:47.733Z,0.36
2022-11-28T04:51:54.969Z,0.42
2022-11-28T04:54:23.108Z,0.38
2022-11-28T04:56:31.700Z,0.36
2022-11-28T04:58:40.659Z,0.41
2022-11-28T05:00:44.329Z,0.37
2022-11-28T05:02:49.698Z,0.38
2022-11-28T05:04:55.817Z,0.34
2022-11-28T05:07:05.945Z,0.33
2022-11-28T05:09:07.872Z,0.36
2022-11-28T05:11:09.693Z,0.32
2022-11-28T05:13:11.511Z,0.30
2022-11-28T05:15:13.455Z,0.29
2022-11-28T05:17:15.371Z,0.32
2022-11-28T05:19:17.720Z,0.29
2022-11-28T05:21:19.797Z,0.24
2022-11-28T05:23:21.703Z,0.25
2022-11-28T05:25:23.935Z,0.23
2022-11-28T05:27:25.787Z,0.25
2022-11-28T05:29:27.574Z,0.24
2022-11-28T05:31:29.665Z,0.22
2022-11-28T05:33:33.458Z,0.18
2022-11-28T05:35:35.376Z,0.15
2022-11-28T05:37:38.512Z,0.16
2022-11-28T05:39:40.592Z,0.18
2022-11-28T05:41:42.591Z,0.17
2022-11-28T05:43:44.532Z,0.18
2022-11-28T05:45:46.437Z,0.19
2022-11-28T05:47:48.353Z,0.21
2022-11-28T05:49:50.276Z,0.17
2022-11-28T05:51:52.102Z,0.19
2022-11-28T05:53:54.318Z,0.19
2022-11-28T05:55:56.237Z,0.19
2022-11-28T05:57:58.053Z,0.22
2022-11-28T06:00:01.097Z,0.19
2022-11-28T06:02:03.084Z,0.24
2022-11-28T06:04:05.111Z,0.27
2022-11-28T06:06:18.111Z,0.23
2022-11-28T06:08:20.040Z,0.25
2022-11-28T06:10:22.800Z,0.24
2022-11-28T06:12:24.605Z,0.24
2022-11-28T06:14:26.435Z,0.21
2022-11-28T06:16:30.056Z,0.22
2022-11-28T06:18:33.998Z,0.20
2022-11-28T06:20:35.992Z,0.18
2022-11-28T06:22:37.832Z,0.19
2022-11-28T06:24:39.610Z,0.20
2022-11-28T06:26:41.420Z,0.18
2022-11-28T06:28:44.067Z,0.23
2022-11-28T06:30:45.979Z,0.22
2022-11-28T06:32:47.833Z,0.18
2022-11-28T06:34:52.838Z,0.18
2022-11-28T06:36:54.815Z,0.19
2022-11-28T06:38:56.798Z,0.20
2022-11-28T06:41:06.526Z,0.21
2022-11-28T06:43:08.366Z,0.25
2022-11-28T06:45:10.624Z,0.26
2022-11-28T06:47:12.559Z,0.24
2022-11-28T06:49:26.285Z,0.26
2022-11-28T06:51:28.767Z,0.24
2022-11-28T06:53:31.702Z,0.18
2022-11-28T06:55:33.823Z,0.22
2022-11-28T06:57:35.991Z,0.19
2022-11-28T06:59:37.877Z,0.19
2022-11-28T07:01:39.869Z,0.22
2022-11-28T07:03:42.610Z,0.22
2022-11-28T07:05:44.538Z,0.19
2022-11-28T07:07:54.092Z,0.20
2022-11-28T07:09:56.552Z,0.22
2022-11-28T07:12:00.452Z,0.22
2022-11-28T07:14:03.121Z,0.21
2022-11-28T07:16:05.222Z,0.23
2022-11-28T07:18:07.121Z,0.26
2022-11-28T07:20:12.666Z,0.26
2022-11-28T07:22:14.611Z,0.29
2022-11-28T07:24:18.623Z,0.31
2022-11-28T07:26:22.016Z,0.34
2022-11-28T07:28:23.917Z,0.35
2022-11-28T07:30:26.359Z,0.35
2022-11-28T07:32:28.284Z,0.38
2022-11-28T07:34:30.138Z,0.38
2022-11-28T07:36:32.598Z,0.41
2022-11-28T07:38:34.623Z,0.38
2022-11-28T07:40:37.600Z,0.45
2022-11-28T07:42:39.987Z,0.45
2022-11-28T07:44:41.846Z,0.47
2022-11-28T07:46:45.508Z,0.47
2022-11-28T07:48:53.059Z,0.50
2022-11-28T07:50:55.977Z,0.51
2022-11-28T07:52:59.790Z,0.53
2022-11-28T07:55:05.039Z,0.51
2022-11-28T07:57:14.214Z,0.52
2022-11-28T07:59:16.443Z,0.53
2022-11-28T08:01:28.371Z,0.59
2022-11-28T08:03:30.194Z,0.65
2022-11-28T08:05:32.087Z,0.75
2022-11-28T08:07:34.038Z,0.81
2022-11-28T08:09:36.980Z,0.86
2022-11-28T08:11:39.394Z,0.88
2022-11-28T08:13:41.669Z,0.91
2022-11-28T08:15:43.683Z,0.94
2022-11-28T08:17:46.740Z,0.92
2022-11-28T08:19:49.711Z,0.95
2022-11-28T08:21:51.768Z,0.96
2022-11-28T08:23:56.116Z,1.02
2022-11-28T08:25:58.144Z,1.02
2022-11-28T08:28:00.094Z,1.03
2022-11-28T08:30:02.146Z,1.04
2022-11-28T08:32:04.278Z,1.09
2022-11-28T08:34:08.812Z,1.08
2022-11-28T08:36:12.730Z,1.07
2022-11-28T08:38:15.568Z,1.11
2022-11-28T08:40:17.544Z,1.15
2022-11-28T08:42:19.533Z,1.17
2022-11-28T08:44:21.403Z,1.20
2022-11-28T08:46:25.554Z,1.19
2022-11-28T08:48:27.610Z,1.26
2022-11-28T08:50:29.596Z,1.26
2022-11-28T08:52:31.515Z,1.27
2022-11-28T08:54:33.405Z,1.31
2022-11-28T08:56:35.796Z,1.33
2022-11-28T08:58:37.762Z,1.37
2022-11-28T09:00:40.254Z,1.40
2022-11-28T09:02:42.063Z,1.43
2022-11-28T09:04:43.902Z,1.51
2022-11-28T09:06:45.890Z,1.48
2022-11-28T09:08:48.307Z,1.52
2022-11-28T09:10:50.120Z,1.57
2022-11-28T09:12:52.803Z,1.61
2022-11-28T09:14:54.647Z,1.66
2022-11-28T09:16:56.569Z,1.67
2022-11-28T09:18:59.542Z,1.68
2022-11-28T09:21:03.875Z,1.71
2022-11-28T09:23:06.323Z,1.82
2022-11-28T09:25:08.948Z,1.82
2022-11-28T09:27:10.821Z,1.90
2022-11-28T09:29:12.704Z,1.94
2022-11-28T09:31:17.227Z,1.98
2022-11-28T09:33:19.250Z,2.00
2022-11-28T09:35:21.136Z,1.90
2022-11-28T09:37:23.057Z,1.98
2022-11-28T09:39:30.225Z,2.03
2022-11-28T09:41:50.270Z,2.03
2022-11-28T09:43:55.238Z,2.02
2022-11-28T09:45:59.728Z,2.05
2022-11-28T09:48:35.475Z,2.01
2022-11-28T09:50:41.695Z,2.04
2022-11-28T09:53:07.002Z,2.11
2022-11-28T09:55:31.969Z,2.06
2022-11-28T09:57:41.296Z,2.04
2022-11-28T09:59:43.478Z,2.05
2022-11-28T10:02:14.090Z,2.17
2022-11-28T10:04:27.382Z,2.18
2022-11-28T10:06:41.600Z,2.17
2022-11-28T10:08:50.658Z,2.23
2022-11-28T10:11:09.477Z,2.26
2022-11-28T10:14:07.090Z,2.29
2022-11-28T10:16:27.411Z,2.29
2022-11-28T10:18:40.198Z,2.31
2022-11-28T10:20:45.358Z,2.33
2022-11-28T10:22:50.990Z,2.35
2022-11-28T10:24:57.888Z,2.35
2022-11-28T10:27:04.341Z,2.33
2022-11-28T10:29:46.156Z,2.33
2022-11-28T10:31:49.890Z,2.39
2022-11-28T10:34:00.348Z,1.73
2022-11-28T10:36:03.597Z,2.06
2022-11-28T10:38:12.025Z,2.15
2022-11-28T10:40:43.642Z,2.24
2022-11-28T10:42:59.001Z,2.24
2022-11-28T10:45:03.957Z,2.28
2022-11-28T10:47:09.715Z,2.31
2022-11-28T10:49:25.164Z,2.36
2022-11-28T10:51:38.713Z,2.39
2022-11-28T10:54:02.670Z,2.38
2022-11-28T10:56:33.548Z,2.39
2022-11-28T10:59:09.384Z,2.39
2022-11-28T11:01:12.730Z,2.46
2022-11-28T11:03:17.710Z,2.43
2022-11-28T11:05:23.465Z,2.47
2022-11-28T11:07:33.643Z,2.46
2022-11-28T11:09:35.856Z,2.48
2022-11-28T11:11:46.931Z,2.47
2022-11-28T11:14:02.821Z,2.49
2022-11-28T11:16:08.250Z,2.50
2022-11-28T11:18:27.742Z,2.57
2022-11-28T11:20:31.480Z,2.55
2022-11-28T11:22:33.398Z,2.54
2022-11-28T11:24:35.373Z,2.56
2022-11-28T11:26:42.177Z,2.58
2022-11-28T11:28:47.253Z,2.59
2022-11-28T11:30:49.304Z,2.58
2022-11-28T11:32:51.883Z,2.54
2022-11-28T11:34:57.082Z,2.50
2022-11-28T11:37:20.441Z,2.54
2022-11-28T11:39:28.304Z,2.48
2022-11-28T11:41:33.895Z,2.44
2022-11-28T11:43:38.847Z,2.42
2022-11-28T11:45:47.237Z,2.42
2022-11-28T11:47:52.012Z,2.36
2022-11-28T11:50:03.397Z,2.40
2022-11-28T11:52:25.344Z,2.40
2022-11-28T11:54:27.398Z,2.36
2022-11-28T11:56:34.453Z,2.40
2022-11-28T11:58:47.663Z,2.38
2022-11-28T12:00:55.126Z,2.35
2022-11-28T12:03:41.352Z,2.35
2022-11-28T12:08:35.237Z,2.22
2022-11-28T12:10:45.582Z,2.21
2022-11-28T12:12:47.524Z,2.12
2022-11-28T12:14:50.867Z,2.07
2022-11-28T12:17:25.586Z,2.07
2022-11-28T12:20:05.513Z,2.02
2022-11-28T12:22:42.848Z,2.02
2022-11-28T12:25:20.545Z,2.02
2022-11-28T12:27:31.495Z,2.01
2022-11-28T12:30:14.504Z,2.02
2022-11-28T12:32:22.710Z,2.01
2022-11-28T12:34:42.001Z,2.03
2022-11-28T12:37:19.084Z,2.03
2022-11-28T12:39:50.054Z,2.01
2022-11-28T12:42:13.328Z,2.07
2022-11-28T12:44:37.935Z,2.11
2022-11-28T12:46:51.993Z,2.20
2022-11-28T12:49:18.372Z,2.23
2022-11-28T12:51:28.714Z,2.27
2022-11-28T12:53:59.683Z,2.31
2022-11-28T12:56:23.797Z,2.30
2022-11-28T12:58:32.261Z,2.33
2022-11-28T13:00:48.986Z,2.34
2022-11-28T13:03:09.438Z,2.35
2022-11-28T13:05:25.994Z,2.30
2022-11-28T13:07:46.651Z,2.30
2022-11-28T13:10:19.624Z,2.36
2022-11-28T13:12:46.080Z,2.36
2022-11-28T13:15:00.747Z,2.37
2022-11-28T13:17:37.174Z,2.38
2022-11-28T13:19:51.570Z,2.33
2022-11-28T13:22:02.301Z,2.29
2022-11-28T13:24:12.231Z,2.34
2022-11-28T13:26:47.627Z,2.32
2022-11-28T13:29:00.585Z,2.32
2022-11-28T13:31:32.166Z,1.87
2022-11-28T13:33:54.857Z,1.62
2022-11-28T13:35:59.739Z,1.77
2022-11-28T13:38:37.197Z,1.84
2022-11-28T13:40:48.480Z,1.94
2022-11-28T13:43:27.812Z,2.04
2022-11-28T13:51:30.491Z,2.15
2022-11-28T13:53:33.696Z,2.17
2022-11-28T13:55:47.243Z,2.20
2022-11-28T13:57:49.856Z,2.18
2022-11-28T13:59:56.879Z,2.16
2022-11-28T14:02:05.182Z,2.15
2022-11-28T14:04:12.282Z,2.16
2022-11-28T14:06:19.069Z,2.13
2022-11-28T14:08:36.702Z,2.19
2022-11-28T14:10:51.384Z,2.22
2022-11-28T14:12:58.765Z,2.23
2022-11-28T14:15:26.447Z,2.23
2022-11-28T14:17:49.287Z,2.17
2022-11-28T14:19:59.919Z,2.18
2022-11-28T14:22:33.406Z,2.16
2022-11-28T14:24:49.894Z,2.19
2022-11-28T14:26:59.619Z,2.21
2022-11-28T14:29:05.457Z,2.21
2022-11-28T14:31:11.322Z,2.19
2022-11-28T14:33:25.099Z,2.09
2022-11-28T14:36:01.980Z,2.15
2022-11-28T14:38:27.271Z,2.17
2022-11-28T14:40:57.041Z,2.19
2022-11-28T14:43:24.728Z,2.14
2022-11-28T14:45:42.344Z,2.12
2022-11-28T14:48:16.956Z,2.15
2022-11-28T14:50:20.970Z,2.13
2022-11-28T14:52:38.944Z,2.15
2022-11-28T14:54:45.535Z,2.11
2022-11-28T14:56:48.428Z,2.10
2022-11-28T14:58:52.701Z,2.12
2022-11-28T15:00:56.562Z,2.08
2022-11-28T15:03:23.809Z,2.18
2022-11-28T15:05:37.824Z,2.19
2022-11-28T15:08:18.788Z,2.14
2022-11-28T15:10:40.392Z,2.15
2022-11-28T15:13:03.604Z,2.15
2022-11-28T15:15:08.248Z,2.15
2022-11-28T15:17:13.430Z,2.11
2022-11-28T15:19:27.430Z,2.13
2022-11-28T15:21:29.525Z,2.10
2022-11-28T15:23:44.386Z,2.06
2022-11-28T15:25:53.396Z,2.06
2022-11-28T15:27:55.792Z,2.02
2022-11-28T15:30:01.167Z,2.09
2022-11-28T15:32:04.055Z,1.94
2022-11-28T15:34:10.182Z,1.80
2022-11-28T15:36:29.059Z,1.74
2022-11-28T15:38:32.486Z,1.72
2022-11-28T15:40:36.946Z,1.66
2022-11-28T15:42:39.164Z,1.68
2022-11-28T15:44:43.443Z,1.64
2022-11-28T15:46:47.071Z,1.72
2022-11-28T15:48:52.859Z,1.80
2022-11-28T15:50:55.078Z,1.76
2022-11-28T15:53:14.641Z,1.73
2022-11-28T15:55:17.825Z,1.75
2022-11-28T15:57:27.390Z,1.73
2022-11-28T15:59:29.828Z,1.67
2022-11-28T16:01:33.178Z,1.70
2022-11-28T16:03:57.228Z,1.73
2022-11-28T16:06:00.455Z,1.80
2022-11-28T16:08:02.718Z,1.85
2022-11-28T16:10:23.486Z,1.89
2022-11-28T16:12:26.961Z,1.93
2022-11-28T16:14:42.968Z,1.87
2022-11-28T16:16:45.148Z,1.84
2022-11-28T16:18:58.890Z,1.90
2022-11-28T16:21:02.121Z,1.89
2022-11-28T16:23:19.974Z,1.97
2022-11-28T16:25:25.447Z,1.94
2022-11-28T16:27:35.261Z,1.89
2022-11-28T16:29:46.681Z,1.93
2022-11-28T16:31:53.076Z,1.99
2022-11-28T16:33:56.228Z,1.91
2022-11-28T16:36:10.221Z,1.92
2022-11-28T16:38:21.334Z,1.95
2022-11-28T16:40:24.390Z,1.90
2022-11-28T16:42:26.860Z,1.84
2022-11-28T16:44:29.165Z,1.95
2022-11-28T16:46:42.327Z,1.85
2022-11-28T16:48:56.498Z,1.87
2022-11-28T16:51:14.890Z,1.87
2022-11-28T16:53:47.031Z,1.85
2022-11-28T16:55:49.453Z,1.85
2022-11-28T16:57:57.167Z,1.86
2022-11-28T16:59:59.121Z,1.86
2022-11-28T17:02:02.267Z,1.86
2022-11-28T17:04:05.996Z,1.86
2022-11-28T17:06:34.725Z,1.83
2022-11-28T17:08:37.028Z,1.87
2022-11-28T17:10:39.038Z,1.85
2022-11-28T17:12:42.376Z,1.86
2022-11-28T17:14:44.907Z,1.84
2022-11-28T17:16:47.293Z,1.80
2022-11-28T17:18:51.126Z,1.80
2022-11-28T17:20:53.591Z,1.76
2022-11-28T17:22:59.672Z,1.77
2022-11-28T17:25:02.829Z,1.80
2022-11-28T17:27:10.156Z,1.77
2022-11-28T17:29:15.568Z,1.72
2022-11-28T17:31:18.512Z,1.71
2022-11-28T17:33:23.626Z,1.75
2022-11-28T17:35:33.521Z,1.80
2022-11-28T17:37:38.503Z,1.76
2022-11-28T17:40:00.717Z,1.78
2022-11-28T17:42:03.030Z,1.77
2022-11-28T17:44:05.830Z,1.74
2022-11-28T17:46:13.755Z,1.80
2022-11-28T17:48:16.984Z,1.74
2022-11-28T17:50:19.374Z,1.75
2022-11-28T17:52:22.441Z,1.77
2022-11-28T17:54:26.599Z,1.68
2022-11-28T17:56:32.914Z,1.71
2022-11-28T17:58:35.337Z,1.67
2022-11-28T18:00:37.750Z,1.69
2022-11-28T18:02:40.152Z,1.70
2022-11-28T18:04:44.705Z,1.73
2022-11-28T18:06:48.199Z,1.66
2022-11-28T18:08:51.554Z,1.65
2022-11-28T18:11:06.697Z,1.62
2022-11-28T18:13:10.717Z,1.63
2022-11-28T18:15:13.066Z,1.66
2022-11-28T18:17:15.520Z,1.58
2022-11-28T18:19:18.018Z,1.51
2022-11-28T18:21:24.011Z,1.41
2022-11-28T18:23:26.082Z,1.32
2022-11-28T18:25:28.852Z,1.31
2022-11-28T18:27:34.335Z,1.30
2022-11-28T18:29:36.770Z,1.25
2022-11-28T18:31:39.796Z,1.21
2022-11-28T18:33:43.507Z,1.24
2022-11-28T18:35:48.832Z,1.22
2022-11-28T18:37:51.709Z,1.20
2022-11-28T18:39:54.099Z,1.17
2022-11-28T18:41:57.411Z,1.12
2022-11-28T18:44:02.318Z,1.12
2022-11-28T18:46:16.980Z,1.11
2022-11-28T18:48:19.585Z,1.07
2022-11-28T18:50:24.815Z,1.00
2022-11-28T18:52:26.768Z,1.00
2022-11-28T18:54:31.629Z,0.95
2022-11-28T18:56:34.447Z,0.93
2022-11-28T18:58:38.918Z,0.87
2022-11-28T19:00:42.508Z,0.89
2022-11-28T19:02:44.969Z,0.84
2022-11-28T19:04:50.072Z,0.80
2022-11-28T19:06:54.359Z,0.78
2022-11-28T19:09:00.368Z,0.71
2022-11-28T19:11:04.588Z,0.65
2022-11-28T19:13:07.557Z,0.65
2022-11-28T19:15:15.149Z,0.62
2022-11-28T19:17:18.590Z,0.58
2022-11-28T19:19:21.584Z,0.54
2022-11-28T19:21:32.314Z,0.53
2022-11-28T19:23:35.018Z,0.49
2022-11-28T19:25:37.401Z,0.49
2022-11-28T19:27:39.981Z,0.47
2022-11-28T19:29:45.332Z,0.41
2022-11-28T19:31:48.023Z,0.41
2022-11-28T19:34:02.120Z,0.37
2022-11-28T19:36:06.972Z,0.31
2022-11-28T19:38:10.087Z,0.32
2022-11-28T19:40:12.853Z,0.29
2022-11-28T19:42:16.010Z,0.27
2022-11-28T19:44:22.622Z,0.25
2022-11-28T19:46:29.220Z,0.23
2022-11-28T19:48:37.185Z,0.18
2022-11-28T19:50:39.138Z,0.20
2022-11-28T19:52:41.274Z,0.17
2022-11-28T19:54:43.695Z,0.16
2022-11-28T19:56:46.751Z,0.11
2022-11-28T19:58:53.994Z,0.11
2022-11-28T20:01:10.113Z,0.06
2022-11-28T20:03:14.378Z,0.10
2022-11-28T20:05:16.862Z,0.06
2022-11-28T20:07:23.881Z,0.08
2022-11-28T20:09:28.658Z,0.04
2022-11-28T20:11:33.961Z,0.06
2022-11-28T20:13:36.626Z,0.02
2022-11-28T20:15:39.154Z,0.01
2022-11-28T20:17:42.483Z,0.02
2022-11-28T20:19:46.217Z,0.03
2022-11-28T20:21:49.005Z,0.03
2022-11-28T20:23:53.827Z,0.03
2022-11-28T20:25:56.938Z,0.02
2022-11-28T20:27:58.945Z,-0.01
2022-11-28T20:30:05.346Z,0.04
2022-11-28T20:32:12.911Z,0.04
2022-11-28T20:34:23.787Z,0.01
2022-11-28T20:36:28.571Z,0.03
2022-11-28T20:38:39.134Z,0.02
2022-11-28T20:40:44.812Z,0.00
2022-11-28T20:42:46.847Z,0.02
2022-11-28T20:44:49.290Z,-0.02
2022-11-28T20:46:55.670Z,-0.01
2022-11-28T20:49:07.223Z,0.00
2022-11-28T20:51:20.397Z,-0.03
2022-11-28T20:53:30.890Z,-0.02
2022-11-28T20:55:33.340Z,-0.04
2022-11-28T20:57:44.477Z,-0.05
2022-11-28T20:59:47.070Z,-0.04
2022-11-28T21:01:49.441Z,-0.08
2022-11-28T21:03:57.525Z,-0.06
2022-11-28T21:06:01.944Z,-0.07
2022-11-28T21:08:05.677Z,-0.08
2022-11-28T21:10:18.336Z,-0.07
2022-11-28T21:12:32.743Z,-0.04
2022-11-28T21:17:54.043Z,-0.07
2022-11-28T21:20:02.510Z,-0.08
2022-11-28T21:22:23.957Z,-0.12
2022-11-28T21:24:25.890Z,-0.11
2022-11-28T21:26:41.079Z,-0.09
2022-11-28T21:29:00.142Z,-0.08
2022-11-28T21:31:18.210Z,-0.06
2022-11-28T21:33:24.106Z,-0.07
2022-11-28T21:35:29.008Z,-0.09
2022-11-28T21:37:32.062Z,-0.05
2022-11-28T21:39:37.009Z,-0.07
2022-11-28T21:44:01.733Z,-0.07
2022-11-28T21:46:07.545Z,-0.06
2022-11-28T21:48:12.022Z,-0.05
2022-11-28T21:50:26.250Z,-0.09
2022-11-28T21:52:45.126Z,-0.06
2022-11-28T21:54:46.995Z,-0.09
2022-11-28T21:57:11.276Z,-0.10
2022-11-28T21:59:19.161Z,-0.09
2022-11-28T22:01:37.112Z,-0.07
2022-11-28T22:03:49.752Z,-0.07
2022-11-28T22:06:20.633Z,-0.06
2022-11-28T22:08:35.991Z,-0.08
2022-11-28T22:10:53.000Z,-0.08
2022-11-28T22:13:05.556Z,-0.11
2022-11-28T22:15:13.296Z,-0.09
2022-11-28T22:18:01.216Z,-0.10
2022-11-28T22:20:08.201Z,-0.06
2022-11-28T22:22:19.097Z,-0.08
2022-11-28T22:24:35.253Z,-0.07
2022-11-28T22:27:04.510Z,-0.08
2022-11-28T22:29:06.565Z,-0.12
2022-11-28T22:31:14.777Z,-0.06
2022-11-28T22:33:17.663Z,-0.05
2022-11-28T22:35:23.664Z,-0.05
2022-11-28T22:37:27.498Z,-0.13
2022-11-28T22:39:29.375Z,-0.09
2022-11-28T22:41:32.284Z,-0.13
2022-11-28T22:43:34.397Z,-0.14
2022-11-28T22:45:37.317Z,-0.10
2022-11-28T22:47:39.184Z,-0.12
2022-11-28T22:49:41.045Z,-0.12
2022-11-28T22:51:42.989Z,-0.08
2022-11-28T22:53:45.187Z,-0.08
2022-11-28T22:55:47.092Z,-0.07
2022-11-28T22:57:52.019Z,-0.10
2022-11-28T22:59:54.096Z,-0.08
2022-11-28T23:01:56.190Z,-0.08
2022-11-28T23:03:59.101Z,-0.09
2022-11-28T23:06:13.773Z,-0.11
2022-11-28T23:08:15.612Z,-0.06
2022-11-28T23:10:17.806Z,-0.10
2022-11-28T23:12:26.605Z,-0.09
2022-11-28T23:14:28.567Z,-0.08
2022-11-28T23:16:39.175Z,-0.07
2022-11-28T23:18:43.484Z,-0.09
2022-11-28T23:20:46.301Z,-0.16
2022-11-28T23:22:50.198Z,-0.12
2022-11-28T23:24:53.066Z,-0.11
2022-11-28T23:26:56.935Z,-0.11
2022-11-28T23:29:03.796Z,-0.09
2022-11-28T23:31:13.775Z,-0.13
2022-11-28T23:33:15.655Z,-0.14
2022-11-28T23:35:17.569Z,-0.11
2022-11-28T23:37:19.498Z,-0.08
2022-11-28T23:39:22.712Z,-0.08
2022-11-28T23:41:25.556Z,-0.08
2022-11-28T23:43:27.376Z,-0.10
2022-11-28T23:45:29.219Z,-0.06
2022-11-28T23:47:31.071Z,-0.11
2022-11-28T23:49:32.937Z,-0.08
2022-11-28T23:51:35.192Z,-0.09
2022-11-28T23:53:37.135Z,-0.11
2022-11-28T23:55:38.973Z,-0.09
2022-11-28T23:57:40.849Z,-0.12
2022-11-28T23:59:42.649Z,-0.11
